Latest Weather Observations for Ballera

IDQ60801

Issued at 6:02 am EST Saturday 20 October 2018 (issued every 10 minutes, with the page automatically refreshed every 10 minutes)

About weather observations | Map of weather stations | Latest weather observations for QLD | Other Formats
Station Details ID: 045009 Name: BALLERA GAS FIELD Lat: -27.40 Lon: 141.81 Height: 114.5 m
Data from the previous 72 hours. | See also: Recent months at Ballera
Date/Time
EST
Temp
°C
App
Temp
°C
Dew
Point
°C
Rel
Hum
%
Delta-T
°C
Wind Press
QNH
hPa
Press
MSL
hPa
Rain since
9am
mm
Dir  Spd
km/h
Gust
km/h
Spd
kts
Gust
kts
20/06:00am 25.8 20.5 -6.9 11 13.4 NW 13 41 7 22 1010.8 1010.3 0.0
20/05:30am 26.3 23.4 -7.7 10 13.8 CALM 0 0 0 0 1009.4 1008.9 0.0
20/05:00am 27.0 23.2 -3.7 13 13.5 NW 7 13 4 7 1008.9 1008.4 0.0
20/04:30am 27.2 22.9 -8.4 9 14.4 WNW 7 13 4 7 1008.9 1008.4 0.0
20/04:00am 27.7 23.1 -8.0 9 14.6 N 9 13 5 7 1008.8 1008.3 0.0
20/03:30am 26.3 21.5 -10.5 8 14.2 WSW 9 15 5 8 1009.2 1008.7 0.0
20/03:00am 26.7 22.5 -10.2 8 14.4 WSW 6 11 3 6 1009.5 1009.0 0.0
20/02:30am 27.1 23.0 -8.5 9 14.3 WSW 6 7 3 4 1009.6 1009.1 0.0
20/02:00am 27.5 22.8 -9.7 8 14.7 SE 9 13 5 7 1009.7 1009.2 0.0
20/01:30am 28.2 23.1 -9.1 8 15.0 SW 11 24 6 13 1009.7 1009.2 0.0
20/01:00am 25.5 20.3 -11.1 8 13.9 WNW 11 11 6 6 1010.3 1009.8 0.0
20/12:30am 25.7 21.4 -11.0 8 13.9 WNW 6 9 3 5 1010.6 1010.1 0.0
20/12:00am 27.9 24.5 -2.0 14 13.7 WNW 6 7 3 4 1010.7 1010.2 0.0
 
Date/Time
EST
Temp
°C
App
Temp
°C
Dew
Point
°C
Rel
Hum
%
Delta-T
°C
Wind Press
QNH
hPa
Press
MSL
hPa
Rain since
9am
mm
Dir  Spd
km/h
Gust
km/h
Spd
kts
Gust
kts
19/11:30pm 27.9 26.1 1.4 18 12.8 CALM 0 0 0 0 1010.9 1010.4 0.0
19/11:00pm 29.5 25.2 -11.8 6 16.1 WNW 6 6 3 3 1011.3 1010.8 0.0
19/10:30pm 29.3 24.8 -11.9 6 16.0 WNW 7 9 4 5 1011.5 1011.0 0.0
19/10:00pm 29.4 24.5 -11.9 6 16.0 WNW 9 9 5 5 1011.7 1011.1 0.0
19/09:30pm 30.4 25.5 -11.2 6 16.5 WNW 9 9 5 5 1011.3 1010.8 0.0
19/09:00pm 30.7 25.9 -10.9 6 16.6 WNW 9 9 5 5 1011.2 1010.7 0.0
19/08:30pm 30.5 25.9 -13.3 5 16.8 WNW 7 11 4 6 1010.9 1010.4 0.0
19/08:00pm 31.4 25.7 -12.7 5 17.2 WNW 13 13 7 7 1010.6 1010.1 0.0
19/07:30pm 31.5 26.2 -12.6 5 17.3 WNW 11 13 6 7 1010.1 1009.6 0.0
19/07:00pm 32.4 26.0 -12.0 5 17.7 WNW 17 20 9 11 1009.7 1009.2 0.0
19/06:30pm 34.7 27.8 -13.2 4 19.1 WNW 19 22 10 12 1009.4 1008.9 0.0
19/06:00pm 35.8 28.8 -12.4 4 19.7 NW 20 28 11 15 1008.9 1008.4 0.0
19/05:30pm 36.3 28.9 -12.1 4 20.0 NW 22 30 12 16 1008.7 1008.2 0.0
19/05:00pm 36.9 29.5 -11.7 4 20.3 NW 22 37 12 20 1008.5 1008.0 0.0
19/04:30pm 36.9 29.2 -11.7 4 20.3 NW 24 35 13 19 1008.6 1008.1 0.0
19/04:00pm 37.1 29.5 -15.1 3 20.8 NW 22 32 12 17 1008.6 1008.1 0.0
19/03:30pm 37.4 29.7 -11.4 4 20.6 NW 24 35 13 19 1008.9 1008.4 0.0
19/03:00pm 36.7 29.0 -11.8 4 20.2 NW 24 39 13 21 1009.1 1008.6 0.0
19/02:30pm 36.2 29.0 -9.4 5 19.6 NNW 22 39 12 21 1009.6 1009.1 0.0
19/02:00pm 36.9 29.4 -8.9 5 20.0 NW 24 33 13 18 1010.1 1009.6 0.0
19/01:30pm 36.3 29.5 -9.3 5 19.7 NNW 20 32 11 17 1010.7 1010.2 0.0
19/01:00pm 35.4 27.8 -9.9 5 19.2 NNW 24 33 13 18 1011.1 1010.6 0.0
19/12:30pm 34.8 27.3 -8.0 6 18.6 N 24 39 13 21 1011.5 1011.0 0.0
19/12:00pm 34.3 27.0 -6.4 7 18.1 NNW 24 33 13 18 1012.1 1011.5 0.0
19/11:30am 34.1 27.2 -6.5 7 18.0 N 22 37 12 20 1012.7 1012.1 0.0
19/11:00am 32.8 25.2 -5.7 8 17.1 N 26 37 14 20 1013.1 1012.5 0.0
19/10:30am 32.9 26.6 -4.1 9 16.9 N 20 32 11 17 1013.7 1013.1 0.0
19/10:00am 32.1 26.3 0.2 13 15.6 N 20 28 11 15 1014.2 1013.6 0.0
19/09:30am 30.6 25.5 1.0 15 14.5 NNE 17 22 9 12 1014.5 1013.9 0.0
19/09:00am 28.7 24.2 2.1 18 13.1 NNE 15 20 8 11 1014.4 1013.8 0.0
19/08:30am 26.8 22.3 2.0 20 12.1 NE 15 20 8 11 1014.5 1013.9 0.0
19/08:00am 25.8 22.4 1.8 21 11.5 ESE 9 13 5 7 1014.7 1014.1 0.0
19/07:30am 24.1 20.6 1.1 22 10.8 ESE 9 11 5 6 1014.4 1013.8 0.0
19/07:00am 22.0 19.0 1.1 25 9.6 ESE 6 7 3 4 1014.3 1013.7 0.0
19/06:30am 18.9 15.8 0.0 28 8.3 ESE 6 6 3 3 1014.0 1013.4 0.0
19/06:00am 19.0 15.8 -0.4 27 8.5 ESE 6 11 3 6 1013.7 1013.1 0.0
19/05:30am 21.4 18.3 1.1 26 9.3 ESE 7 7 4 4 1013.5 1012.9 0.0
19/05:00am 21.2 17.6 0.4 25 9.4 ESE 9 11 5 6 1013.4 1012.8 0.0
19/04:30am 20.8 16.4 0.1 25 9.3 ESE 13 15 7 8 1013.4 1012.8 0.0
19/04:00am 20.6 15.3 -0.7 24 9.4 SE 17 17 9 9 1013.3 1012.7 0.0
19/03:30am 21.9 17.4 -0.1 23 9.9 SE 13 15 7 8 1013.3 1012.7 0.0
19/03:00am 21.8 17.7 -0.2 23 9.9 SE 11 13 6 7 1013.4 1012.8 0.0
19/02:30am 21.8 17.6 -0.8 22 10.0 SE 11 13 6 7 1013.6 1013.0 0.0
19/02:00am 22.8 18.6 -0.6 21 10.5 SE 11 13 6 7 1013.8 1013.2 0.0
19/01:30am 23.1 18.9 -1.1 20 10.8 SE 11 13 6 7 1014.0 1013.4 0.0
19/01:00am 22.7 18.3 -2.1 19 10.8 SE 11 13 6 7 1014.2 1013.6 0.0
19/12:30am 23.5 19.1 -2.2 18 11.3 SSE 11 13 6 7 1014.2 1013.6 0.0
19/12:00am 24.2 19.0 -2.4 17 11.7 SSE 15 15 8 8 1014.5 1013.9 0.0
 
Date/Time
EST
Temp
°C
App
Temp
°C
Dew
Point
°C
Rel
Hum
%
Delta-T
°C
Wind Press
QNH
hPa
Press
MSL
hPa
Rain since
9am
mm
Dir  Spd
km/h
Gust
km/h
Spd
kts
Gust
kts
18/11:30pm 24.0 20.1 -1.8 18 11.4 SSE 9 13 5 7 1014.8 1014.2 0.0
18/11:00pm 24.4 19.8 -1.4 18 11.6 SSE 13 13 7 7 1014.9 1014.3 0.0
18/10:30pm 24.9 19.9 -1.0 18 11.7 SSE 15 17 8 9 1014.6 1014.0 0.0
18/10:00pm 25.5 21.2 -1.3 17 12.1 S 11 13 6 7 1014.4 1013.8 0.0
18/09:30pm 26.1 21.6 0.0 18 12.2 SSE 13 17 7 9 1014.4 1013.8 0.0
18/09:00pm 26.1 22.8 0.0 18 12.2 S 7 9 4 5 1014.3 1013.7 0.0
18/08:30pm 27.1 23.3 -0.9 16 12.9 S 9 13 5 7 1014.2 1013.6 0.0
18/08:00pm 28.1 23.9 -0.9 15 13.5 S 11 13 6 7 1014.0 1013.4 0.0
18/07:30pm 29.6 26.6 -1.7 13 14.5 S 4 7 2 4 1013.6 1013.0 0.0
18/07:00pm 30.2 26.8 -2.3 12 15.0 S 6 9 3 5 1013.2 1012.6 0.0
18/06:30pm 31.3 27.6 -2.6 11 15.7 S 7 11 4 6 1012.8 1012.2 0.0
18/06:00pm 31.9 27.7 -3.5 10 16.2 SE 9 17 5 9 1012.6 1012.0 0.0
18/05:30pm 32.1 28.0 -3.3 10 16.3 SW 9 13 5 7 1012.3 1011.7 0.0
18/05:00pm 32.1 27.2 -3.3 10 16.3 SW 13 22 7 12 1012.2 1011.6 0.0
18/04:30pm 31.8 27.0 -2.3 11 15.9 SSW 13 30 7 16 1012.3 1011.7 0.0
18/04:00pm 32.6 28.3 -1.7 11 16.3 SE 11 28 6 15 1012.2 1011.6 0.0
18/03:30pm 31.8 26.4 -1.1 12 15.7 SE 17 28 9 15 1012.5 1011.9 0.0
18/03:00pm 31.2 27.4 -0.5 13 15.2 SSW 9 15 5 8 1012.8 1012.2 0.0
18/02:30pm 31.8 28.0 -1.1 12 15.7 SSW 9 19 5 10 1013.3 1012.7 0.0
18/02:00pm 31.3 27.2 -0.4 13 15.2 WSW 11 17 6 9 1013.8 1013.2 0.0
18/01:30pm 30.5 26.4 0.0 14 14.7 WSW 11 20 6 11 1014.2 1013.6 0.0
18/01:00pm 30.3 25.8 -0.1 14 14.6 SW 13 24 7 13 1014.5 1013.9 0.0
18/12:30pm 29.9 24.9 1.4 16 14.0 WSW 17 30 9 16 1015.0 1014.4 0.0
18/12:00pm 29.9 26.6 2.2 17 13.8 SSE 9 24 5 13 1015.4 1014.8 0.0
18/11:30am 28.3 24.9 1.7 18 13.0 W 9 17 5 9 1015.6 1015.1 0.0
18/11:00am 27.7 24.3 2.0 19 12.6 SSE 9 17 5 9 1015.9 1015.4 0.0
18/10:30am 27.6 25.0 4.0 22 12.0 SE 7 11 4 6 1016.1 1015.6 0.0
18/10:00am 26.6 23.3 4.4 24 11.2 ESE 11 19 6 10 1016.4 1015.9 0.0
18/09:30am 26.0 22.2 5.6 27 10.5 SE 15 20 8 11 1016.6 1016.1 0.0
18/09:00am 25.5 21.3 5.7 28 10.2 SE 17 24 9 13 1016.7 1016.2 0.0
18/08:30am 24.5 20.2 5.3 29 9.8 SE 17 22 9 12 1016.7 1016.2 0.0
18/08:00am 23.1 19.6 5.5 32 8.9 SE 13 19 7 10 1016.5 1016.0 0.0
18/07:30am 21.3 17.7 5.2 35 8.0 SSE 13 15 7 8 1016.3 1015.8 0.0
18/07:00am 19.6 15.7 5.3 39 7.0 SSE 15 19 8 10 1016.2 1015.7 0.0
18/06:30am 17.8 14.6 5.1 43 6.1 SSE 11 13 6 7 1015.9 1015.4 0.0
18/06:00am 17.2 14.0 5.2 45 5.8 SSE 11 13 6 7 1015.4 1014.8 0.0
18/05:30am 16.9 13.6 4.6 44 5.9 SSE 11 15 6 8 1015.2 1014.6 0.0
18/05:00am 18.1 13.8 5.3 43 6.2 SSE 17 19 9 10 1014.7 1014.1 0.0
18/04:30am 18.5 14.1 5.0 41 6.6 S 17 20 9 11 1014.2 1013.6 0.0
18/04:00am 18.9 14.6 5.4 41 6.6 S 17 19 9 10 1014.1 1013.5 0.0
18/03:30am 18.9 14.5 5.0 40 6.8 S 17 19 9 10 1014.1 1013.5 0.0
18/03:00am 19.4 15.1 5.1 39 7.0 S 17 20 9 11 1014.2 1013.6 0.0
18/02:30am 19.5 15.1 4.8 38 7.2 S 17 20 9 11 1014.3 1013.7 0.0
18/02:00am 19.9 15.2 5.2 38 7.2 S 19 20 10 11 1014.5 1013.9 0.0
18/01:30am 19.8 15.0 4.7 37 7.4 S 19 20 10 11 1014.7 1014.1 0.0
18/01:00am 19.9 15.4 4.4 36 7.5 SSW 17 19 9 10 1014.8 1014.2 0.0
18/12:30am 20.2 15.7 4.3 35 7.7 SSW 17 20 9 11 1015.0 1014.4 0.0
18/12:00am 20.4 15.8 3.6 33 8.0 SSW 17 19 9 10 1015.1 1014.5 0.0
 
Date/Time
EST
Temp
°C
App
Temp
°C
Dew
Point
°C
Rel
Hum
%
Delta-T
°C
Wind Press
QNH
hPa
Press
MSL
hPa
Rain since
9am
mm
Dir  Spd
km/h
Gust
km/h
Spd
kts
Gust
kts
17/11:30pm 21.2 16.2 3.4 31 8.5 SSW 19 20 10 11 1015.2 1014.6 0.0
17/11:00pm 21.7 17.0 3.4 30 8.8 SSW 17 20 9 11 1015.2 1014.6 0.0
17/10:30pm 22.1 16.9 2.2 27 9.4 SSW 19 20 10 11 1015.2 1014.6 0.0
17/10:00pm 22.6 17.3 1.6 25 9.8 SSW 19 20 10 11 1015.3 1014.7 0.0
17/09:30pm 23.1 17.5 1.5 24 10.1 SSW 20 24 11 13 1015.1 1014.5 0.0
17/09:00pm 23.6 17.9 0.7 22 10.6 SSW 20 24 11 13 1015.0 1014.4 0.0
17/08:30pm 24.2 18.5 0.5 21 11.0 SSW 20 24 11 13 1014.7 1014.1 0.0
17/08:00pm 25.2 19.1 0.7 20 11.5 SSW 22 26 12 14 1014.5 1013.9 0.0
17/07:30pm 26.0 19.8 -0.1 18 12.1 SSW 22 26 12 14 1014.1 1013.5 0.0
17/07:00pm 26.7 20.5 -0.3 17 12.6 SSW 22 28 12 15 1013.6 1013.0 0.0
17/06:30pm 27.6 21.0 -0.5 16 13.1 SSW 24 30 13 16 1013.2 1012.6 0.0
17/06:00pm 28.5 22.3 -0.6 15 13.7 SSW 22 28 12 15 1012.9 1012.3 0.0
17/05:30pm 29.2 22.5 -1.0 14 14.2 SSW 24 32 13 17 1012.8 1012.2 0.0
17/05:00pm 29.8 23.6 -0.5 14 14.4 SSW 22 33 12 18 1012.6 1012.0 0.0
17/04:30pm 29.9 24.8 0.5 15 14.2 SSW 17 33 9 18 1012.6 1012.0 0.0
17/04:00pm 30.9 25.4 0.3 14 14.9 SW 19 33 10 18 1012.6 1012.0 0.0
17/03:30pm 30.5 24.3 0.0 14 14.7 SW 22 30 12 16 1012.8 1012.2 0.0
17/03:00pm 30.3 24.0 1.7 16 14.2 SW 24 35 13 19 1013.1 1012.5 0.0
17/02:30pm 29.3 23.8 0.9 16 13.8 WSW 19 28 10 15 1013.5 1012.9 0.0
17/02:00pm 28.4 23.7 1.0 17 13.2 SSW 15 24 8 13 1014.1 1013.5 0.0
17/01:30pm 28.8 23.4 1.3 17 13.4 SW 19 32 10 17 1014.6 1014.0 0.0
17/01:00pm 27.9 23.0 2.2 19 12.6 SW 17 28 9 15 1015.2 1014.6 0.0
17/12:30pm 28.5 24.0 4.1 21 12.4 SSW 17 26 9 14 1015.6 1015.1 0.0
17/12:00pm 27.1 22.4 2.9 21 12.0 S 17 24 9 13 1016.1 1015.6 0.0
17/11:30am 26.9 22.2 3.4 22 11.7 SW 17 22 9 12 1016.4 1015.9 0.0
17/11:00am 26.6 22.5 4.4 24 11.2 S 15 24 8 13 1016.7 1016.2 0.0
17/10:30am 25.6 20.7 5.2 27 10.4 S 20 28 11 15 1017.0 1016.5 0.0
17/10:00am 25.3 20.2 6.0 29 10.0 SSE 22 32 12 17 1017.2 1016.7 0.0
17/09:30am 24.3 18.5 6.1 31 9.4 SSE 26 33 14 18 1017.3 1016.8 0.0
17/09:00am 23.6 17.5 6.4 33 8.9 SSE 28 35 15 19 1017.3 1016.8 -
17/08:30am 22.4 16.3 6.6 36 8.1 SSE 28 35 15 19 1017.0 1016.5 -
17/08:00am 20.6 14.2 5.4 37 7.5 SSE 28 35 15 19 1016.9 1016.4 -
17/07:30am 19.9 13.4 4.8 37 7.4 S 28 33 15 18 1016.7 1016.2 -
17/07:00am 18.8 13.5 4.9 40 6.7 S 22 28 12 15 1016.3 1015.8 -
17/06:30am 16.7 13.0 4.7 45 5.7 SSW 13 19 7 10 1016.1 1015.6 -

Other Formats:

Comma delimited format used in spreadsheet applications
http://www.bom.gov.au/fwo/IDQ60801/IDQ60801.95487.axf

JavaScript Object Notation format (JSON) in row-major order
http://www.bom.gov.au/fwo/IDQ60801/IDQ60801.95487.json